• Join FlightAware (Why Join?)
  • Login
  • US Flag 
11:18AM EDT


 

Airport Tracker/Info


-or-


 

Live Flight TrackerFlight Track Log ✈ EJA922 ✈ 13-Jul-2013 ✈ KSUN - KMSN

Flight Track Log - Related Links

Times and Time Zones

All times are in EDT time to prevent confusion due to time zone crossing. See the EJA922 flight status page for this flight to view local times or setup timezone preferences in your user account.

Time Position Orientation Groundspeed Altitude Reporting Facility
EDT Latitude Longitude Course Direction KTS MPH feet Rate Location/Type
02:27PM 43.2640 -113.5302 75° East  Level FlightAware Approximate
02:28PM 43.2929 -113.3523 75° East  Level FlightAware Approximate
02:29PM 43.3283 -113.1754 75° East  Level FlightAware Approximate
02:30PM 43.3637 -112.9984 75° East  Level FlightAware Approximate
02:30PM 43.3678 -114.3303 78° East 238 274 14,100  Level Salt Lake Center
02:31PM 43.3991 -112.8213 75° East  Level FlightAware Approximate
02:31PM 43.3039 -114.3683 203° Southwest 252 290 17,400  Level Salt Lake Center
02:32PM 43.4316 -112.6431 76° East  Level FlightAware Approximate
02:32PM 43.2439 -114.2925 137° Southeast 314 361 19,600  Level Salt Lake Center
02:33PM 43.4559 -112.4629 68° East  Level FlightAware Approximate
02:33PM 43.2428 -114.1633 91° East 374 430 21,400  Level Salt Lake Center
02:34PM 43.4956 -112.2879 78° East  Level FlightAware Approximate
02:34PM 43.2700 -113.9989 77° East 400 460 23,000  Level Salt Lake Center
02:35PM 43.5234 -112.1079 78° East  Level FlightAware Approximate
02:35PM 43.2956 -113.8467 77° East 431 496 24,600  Level Salt Lake Center
02:36PM 43.3261 -113.6597 77° East 449 517 25,000 840 Climbing Salt Lake Center
02:38PM 43.3479 -113.4385 90° East  Level Estimated
02:38PM 43.3886 -113.2772 90° East 496 571 27,300  Level Salt Lake Center
02:39PM 43.4189 -113.1011 77° East 496 571 28,600 1,020 Climbing Salt Lake Center
02:40PM 43.4519 -112.8903 78° East 503 579 29,500 1,140 Climbing Salt Lake Center
02:41PM 43.4800 -112.7058 78° East 513 590 31,000 1,380 Climbing Salt Lake Center
02:42PM 43.5139 -112.4944 77° East 509 586 32,400 1,200 Climbing Salt Lake Center
02:44PM 43.5425 -112.3094 78° East 516 594 33,600 1,200 Climbing Salt Lake Center
02:45PM 43.5764 -112.0881 78° East 529 609 34,900 1,200 Climbing Salt Lake Center
02:46PM 43.6044 -111.8986 78° East 529 609 36,200 1,500 Climbing Salt Lake Center
02:47PM 43.6383 -111.6758 78° East 532 612 38,000 1,740 Climbing Salt Lake Center
02:48PM 43.6658 -111.4886 78° East 525 604 39,800 1,440 Climbing Salt Lake Center
02:49PM 43.6964 -111.2739 79° East 516 594 41,000 540 Climbing Salt Lake Center
02:50PM 43.7236 -111.0831 79° East 527 606 41,000  Level Salt Lake Center
02:51PM 43.7572 -110.8478 79° East 558 642 41,000  Level Salt Lake Center
02:52PM 43.7847 -110.6436 79° East 566 651 41,000  Level Salt Lake Center
02:53PM 43.8200 -110.3997 79° East 577 664 41,000  Level Salt Lake Center
02:54PM 43.8400 -110.1914 82° East 574 661 41,000  Level Salt Lake Center
02:55PM 43.8533 -109.9522 85° East 565 650 41,000  Level Salt Lake Center
02:56PM 43.8672 -109.7453 85° East 565 650 41,000  Level Salt Lake Center
02:57PM 43.8822 -109.5019 85° East 568 654 41,000  Level Salt Lake Center
02:58PM 43.8944 -109.2800 86° East 561 646 41,000  Level Salt Lake Center
02:59PM 43.9061 -109.0625 86° East 568 654 41,000  Level Salt Lake Center
03:00PM 43.9183 -108.8472 85° East 565 650 41,000  Level Salt Lake Center
03:01PM 43.9300 -108.6308 86° East 565 650 41,000  Level Salt Lake Center
03:02PM 43.9406 -108.4147 86° East 565 650 41,000  Level Salt Lake Center
03:03PM 43.9514 -108.2000 86° East 563 648 41,000  Level Salt Lake Center
03:04PM 43.9639 -107.9403 86° East 565 650 41,000  Level Salt Lake Center
03:05PM 43.9700 -107.7256 88° East 564 649 41,000  Level Salt Lake Center
03:06PM 43.9742 -107.5097 88° East 563 648 41,000  Level Salt Lake Center
03:07PM 43.9792 -107.2944 88° East 564 649 41,000  Level Salt Lake Center
03:08PM 43.9864 -107.0753 87° East 569 655 41,000  Level Salt Lake Center
03:09PM 43.9914 -106.8144 88° East 567 652 41,000  Level Salt Lake Center
03:10PM 43.9972 -106.5967 88° East 567 652 41,000  Level Salt Lake Center
03:11PM 44.0003 -106.3800 89° East 565 650 41,000  Level Salt Lake Center
03:12PM 44.0014 -106.1622 90° East 566 651 41,000  Level Salt Lake Center
03:13PM 44.0053 -105.9383 89° East 572 658 41,000  Level Salt Lake Center
03:15PM 44.0047 -105.6944 90° East 568 654 41,000  Level Salt Lake Center
03:16PM 44.0042 -105.4858 90° East 564 649 41,000  Level Salt Lake Center
03:17PM 44.0044 -105.2400 90° East 567 652 41,000  Level Salt Lake Center
03:18PM 44.0039 -105.0322 90° East 565 650 41,000  Level Salt Lake Center
03:19PM 44.0017 -104.7881 91° East 565 650 41,000  Level Salt Lake Center
03:20PM 44.0006 -104.5772 90° East 568 654 41,000  Level Salt Lake Center
03:21PM 43.9983 -104.3339 91° East 565 650 41,000  Level Salt Lake Center
03:22PM 43.9964 -104.1264 91° East 562 647 41,000  Level Salt Lake Center
03:23PM 43.9931 -103.9203 91° East 560 644 41,000  Level Salt Lake Center
03:24PM 43.9889 -103.6789 91° East 558 642 41,000  Level Salt Lake Center
03:25PM 43.9861 -103.4711 91° East 560 644 41,000  Level Salt Lake Center
03:26PM 43.9811 -103.2014 91° East 554 638 41,000  Level Denver Center
03:27PM 43.9747 -102.9264 92° East 556 640 41,000  Level Denver Center
03:28PM 43.9686 -102.7053 92° East 553 636 41,000  Level Denver Center
03:29PM 43.9617 -102.4914 93° East 555 639 41,000  Level Denver Center
03:30PM 43.9525 -102.2761 93° East 558 642 41,000  Level Denver Center
03:31PM 43.9433 -102.0631 93° East 557 641 41,000  Level Denver Center
03:32PM 43.9372 -101.8519 92° East 553 636 41,000  Level Denver Center
03:33PM 43.9331 -101.6444 92° East 547 629 41,000  Level Denver Center
03:35PM 43.9233 -101.4347 94° East 548 631 41,000  Level Denver Center
03:35PM 43.9183 -101.2689 92° East 547 629 41,000  Level Minneapolis Center
03:36PM 43.9097 -101.0611 93° East 544 626 41,000  Level Minneapolis Center
03:37PM 43.8989 -100.8117 93° East 542 624 41,000  Level Minneapolis Center
03:38PM 43.8894 -100.6047 94° East 540 621 41,000  Level Minneapolis Center
03:39PM 43.8817 -100.4375 94° East 543 625 41,000  Level Minneapolis Center
03:40PM 43.8692 -100.1917 94° East 540 621 41,000  Level Minneapolis Center
03:41PM 43.8600 -99.9861 93° East 538 619 41,000  Level Minneapolis Center
03:43PM 43.8486 -99.7797 94° East 539 620 41,000  Level Minneapolis Center
03:44PM 43.8342 -99.5306 95° East 542 624 41,000  Level Minneapolis Center
03:45PM 43.8231 -99.3258 94° East 537 618 41,000  Level Minneapolis Center
03:46PM 43.8117 -99.1183 94° East 541 623 41,000  Level Minneapolis Center
03:47PM 43.7994 -98.9142 95° East 537 618 41,000  Level Minneapolis Center
03:48PM 43.7861 -98.7081 95° East 539 620 41,000  Level Minneapolis Center
03:49PM 43.7719 -98.4833 95° East 541 623 41,000  Level Minneapolis Center
03:50PM 43.7589 -98.2778 95° East 540 621 41,000  Level Minneapolis Center
03:51PM 43.7447 -98.0744 95° East 535 616 41,000  Level Minneapolis Center
03:52PM 43.7300 -97.8703 96° East 536 617 41,000  Level Minneapolis Center
03:53PM 43.7131 -97.6281 95° East 532 612 41,000  Level Minneapolis Center
03:54PM 43.6975 -97.4258 96° East 532 612 41,000  Level Minneapolis Center
03:55PM 43.6822 -97.2247 96° East 530 610 41,000  Level Minneapolis Center
03:56PM 43.6672 -97.0233 96° East 532 612 41,000  Level Minneapolis Center
03:57PM 43.6506 -96.8219 96° East 533 613 41,000  Level Minneapolis Center
03:58PM 43.5931 -96.6383 113° Southeast 532 612 41,000  Level Minneapolis Center
03:59PM 43.5606 -96.4022 101° East 538 619 41,000  Level Minneapolis Center
04:00PM 43.5544 -96.1981 92° East 539 620 41,000  Level Minneapolis Center
04:01PM 43.5486 -95.9981 92° East 532 612 41,000  Level Minneapolis Center
04:02PM 43.5422 -95.7981 92° East 530 610 41,000  Level Minneapolis Center
04:03PM 43.5339 -95.5578 93° East 527 606 41,000  Level Minneapolis Center
04:05PM 43.5247 -95.3178 93° East 527 606 41,000  Level Minneapolis Center
04:06PM 43.5161 -95.0806 93° East 522 601 41,000  Level Minneapolis Center
04:07PM 43.5072 -94.8808 93° East 524 603 41,000  Level Minneapolis Center
04:08PM 43.4986 -94.6839 93° East 521 600 41,000  Level Minneapolis Center
04:09PM 43.4900 -94.4881 93° East 515 593 41,000  Level Minneapolis Center
04:10PM 43.4806 -94.2939 94° East 512 589 41,000  Level Minneapolis Center
04:11PM 43.4686 -94.0672 94° East 516 594 41,000  Level Minneapolis Center
04:12PM 43.4586 -93.8747 94° East 513 590 41,000  Level Minneapolis Center
04:13PM 43.4497 -93.6800 94° East 512 589 41,000  Level Minneapolis Center
04:14PM 43.4394 -93.4872 94° East 512 589 41,000  Level Minneapolis Center
04:15PM 43.4289 -93.2942 94° East 510 587 41,000  Level Minneapolis Center
04:16PM 43.4150 -93.0619 95° East 512 589 41,000  Level Minneapolis Center
04:17PM 43.4042 -92.8672 94° East 514 592 41,000 -180 Level Minneapolis Center
04:18PM 43.3931 -92.6739 94° East 513 590 40,700 -900 Descending Minneapolis Center
04:19PM 43.3806 -92.4817 95° East 510 587 39,200 -1,500 Descending Minneapolis Center
04:20PM 43.3686 -92.2900 95° East 507 583 37,700 -1,500 Descending Minneapolis Center
04:21PM 43.3569 -92.0992 95° East 506 582 36,200 -1,620 Descending Minneapolis Center
04:22PM 43.3417 -91.8669 95° East 510 587 34,400 -1,620 Descending Minneapolis Center
04:23PM 43.3286 -91.6725 95° East 511 588 32,900 -1,500 Descending Minneapolis Center
04:24PM 43.3158 -91.4858 95° East 501 577 31,400 -1,500 Descending Minneapolis Center
04:25PM 43.3028 -91.3044 96° East 486 559 29,800 -1,500 Descending Minneapolis Center
04:26PM 43.2939 -91.2003 97° East 479 551 28,900 -1,440 Descending Chicago Center
04:27PM 43.2811 -91.0214 96° East 475 547 27,400 -1,620 Descending Chicago Center
04:28PM 43.2656 -90.8108 96° East 467 537 25,600 -1,620 Descending Chicago Center
04:29PM 43.2528 -90.6381 96° East 461 531 24,100 -1,500 Descending Chicago Center
04:30PM 43.2378 -90.4672 97° East 457 526 22,500 -1,800 Descending Chicago Center
04:31PM 43.2242 -90.2986 96° East 451 519 20,500 -2,280 Descending Chicago Center
04:32PM 43.2083 -90.1222 97° East 443 510 17,800 -2,400 Descending Chicago Center
04:33PM 43.1939 -89.9575 97° East 438 504 15,500 -2,520 Descending Chicago Center
04:34PM 43.1772 -89.7733 97° East 421 484 12,600 -2,220 Descending Chicago Center
04:35PM 43.1667 -89.6319 96° East 381 438 11,000 -1,320 Descending Chicago Center
04:36PM 43.1933 -89.5403 68° East 302 348 9,900 -1,860 Descending Chicago Center
04:37PM 43.2697 -89.5489 355° North 282 325 7,200 -2,760 Descending Chicago Center
04:38PM 43.3361 -89.5908 335° Northwest 279 321 4,300 -1,920 Descending Chicago Center
04:39PM 43.3258 -89.5189 101° East 226 260 3,300 -780 Descending Chicago Center
04:40PM 43.2681 -89.4856 157° South 220 253 2,700 -300 Descending Chicago Center
04:41PM 43.2208 -89.4367 143° Southeast 217 250 2,700 -300 Level Chicago Center
04:42PM 43.1864 -89.3939 138° Southeast 193 222 2,100 -720 Descending Chicago Center
04:43PM 43.1597 -89.3606 138° Southeast 160 184 1,300 -780 Descending Chicago Center